sensor_id;sensor_type;location;lat;lon;timestamp;P1;durP1;ratioP1;P2;durP2;ratioP2
75506;SDS011;64086;43.220;27.878;2022-12-08T00:01:33;50.50;;;34.90;;
75506;SDS011;64086;43.220;27.878;2022-12-08T00:03:59;51.30;;;35.75;;
75506;SDS011;64086;43.220;27.878;2022-12-08T00:06:27;43.90;;;32.63;;
75506;SDS011;64086;43.220;27.878;2022-12-08T00:09:13;33.47;;;22.33;;
75506;SDS011;64086;43.220;27.878;2022-12-08T00:11:49;32.00;;;21.75;;
75506;SDS011;64086;43.220;27.878;2022-12-08T00:14:19;31.83;;;21.67;;
75506;SDS011;64086;43.220;27.878;2022-12-08T00:16:47;27.90;;;19.85;;
75506;SDS011;64086;43.220;27.878;2022-12-08T00:19:13;28.92;;;19.42;;
75506;SDS011;64086;43.220;27.878;2022-12-08T00:21:38;26.33;;;18.55;;
75506;SDS011;64086;43.220;27.878;2022-12-08T00:24:04;26.95;;;18.38;;
75506;SDS011;64086;43.220;27.878;2022-12-08T00:26:30;26.00;;;17.85;;
75506;SDS011;64086;43.220;27.878;2022-12-08T00:28:55;25.73;;;18.23;;
75506;SDS011;64086;43.220;27.878;2022-12-08T00:31:20;25.55;;;16.95;;
75506;SDS011;64086;43.220;27.878;2022-12-08T00:33:46;26.30;;;16.55;;
75506;SDS011;64086;43.220;27.878;2022-12-08T00:36:12;26.30;;;15.73;;
75506;SDS011;64086;43.220;27.878;2022-12-08T00:38:38;23.98;;;16.42;;
75506;SDS011;64086;43.220;27.878;2022-12-08T00:41:17;26.50;;;16.60;;
75506;SDS011;64086;43.220;27.878;2022-12-08T00:44:07;23.38;;;15.15;;
75506;SDS011;64086;43.220;27.878;2022-12-08T00:46:33;25.50;;;16.15;;
75506;SDS011;64086;43.220;27.878;2022-12-08T00:48:59;23.27;;;16.27;;
75506;SDS011;64086;43.220;27.878;2022-12-08T00:51:25;24.85;;;15.73;;
75506;SDS011;64086;43.220;27.878;2022-12-08T00:53:50;26.75;;;15.80;;
75506;SDS011;64086;43.220;27.878;2022-12-08T00:56:16;23.80;;;16.08;;
75506;SDS011;64086;43.220;27.878;2022-12-08T00:58:41;41.17;;;25.88;;
75506;SDS011;64086;43.220;27.878;2022-12-08T01:01:10;38.97;;;24.63;;
75506;SDS011;64086;43.220;27.878;2022-12-08T01:03:36;29.70;;;20.02;;
75506;SDS011;64086;43.220;27.878;2022-12-08T01:06:02;26.92;;;17.00;;
75506;SDS011;64086;43.220;27.878;2022-12-08T01:08:28;26.15;;;16.08;;
75506;SDS011;64086;43.220;27.878;2022-12-08T01:10:53;24.17;;;15.43;;
75506;SDS011;64086;43.220;27.878;2022-12-08T01:13:18;22.33;;;15.38;;
75506;SDS011;64086;43.220;27.878;2022-12-08T01:15:44;23.58;;;14.75;;
75506;SDS011;64086;43.220;27.878;2022-12-08T01:18:09;24.98;;;15.75;;
75506;SDS011;64086;43.220;27.878;2022-12-08T01:20:35;22.48;;;15.52;;
75506;SDS011;64086;43.220;27.878;2022-12-08T01:23:00;24.52;;;16.77;;
75506;SDS011;64086;43.220;27.878;2022-12-08T01:25:25;27.98;;;18.23;;
75506;SDS011;64086;43.220;27.878;2022-12-08T01:27:51;29.90;;;21.20;;
75506;SDS011;64086;43.220;27.878;2022-12-08T01:30:17;26.35;;;20.05;;
75506;SDS011;64086;43.220;27.878;2022-12-08T01:32:43;29.48;;;21.58;;
75506;SDS011;64086;43.220;27.878;2022-12-08T01:35:09;33.45;;;22.35;;
75506;SDS011;64086;43.220;27.878;2022-12-08T01:37:34;31.63;;;21.10;;
75506;SDS011;64086;43.220;27.878;2022-12-08T01:40:00;29.00;;;20.45;;
75506;SDS011;64086;43.220;27.878;2022-12-08T01:42:25;35.05;;;19.80;;
75506;SDS011;64086;43.220;27.878;2022-12-08T01:44:56;32.30;;;22.30;;
75506;SDS011;64086;43.220;27.878;2022-12-08T01:47:29;31.48;;;21.35;;
75506;SDS011;64086;43.220;27.878;2022-12-08T01:49:58;32.50;;;21.80;;
75506;SDS011;64086;43.220;27.878;2022-12-08T01:52:39;35.58;;;24.40;;
75506;SDS011;64086;43.220;27.878;2022-12-08T01:55:16;32.88;;;23.15;;
75506;SDS011;64086;43.220;27.878;2022-12-08T01:58:10;32.30;;;22.58;;
75506;SDS011;64086;43.220;27.878;2022-12-08T02:00:39;28.48;;;20.40;;
75506;SDS011;64086;43.220;27.878;2022-12-08T02:03:08;26.95;;;19.80;;
75506;SDS011;64086;43.220;27.878;2022-12-08T02:05:37;30.75;;;21.60;;
75506;SDS011;64086;43.220;27.878;2022-12-08T02:08:08;29.35;;;21.52;;
75506;SDS011;64086;43.220;27.878;2022-12-08T02:10:36;31.85;;;22.27;;
75506;SDS011;64086;43.220;27.878;2022-12-08T02:13:03;35.40;;;24.35;;
75506;SDS011;64086;43.220;27.878;2022-12-08T02:23:57;38.63;;;25.75;;
75506;SDS011;64086;43.220;27.878;2022-12-08T02:34:00;34.42;;;18.70;;
75506;SDS011;64086;43.220;27.878;2022-12-08T02:36:41;33.03;;;16.83;;
75506;SDS011;64086;43.220;27.878;2022-12-08T02:44:40;27.25;;;19.23;;
75506;SDS011;64086;43.220;27.878;2022-12-08T02:47:12;42.53;;;28.73;;
75506;SDS011;64086;43.220;27.878;2022-12-08T02:49:39;36.00;;;26.48;;
75506;SDS011;64086;43.220;27.878;2022-12-08T02:54:37;31.35;;;21.98;;
75506;SDS011;64086;43.220;27.878;2022-12-08T03:00:08;35.28;;;22.70;;
75506;SDS011;64086;43.220;27.878;2022-12-08T03:08:14;31.58;;;21.55;;
75506;SDS011;64086;43.220;27.878;2022-12-08T03:10:50;30.77;;;21.27;;
75506;SDS011;64086;43.220;27.878;2022-12-08T03:13:24;28.98;;;20.58;;
75506;SDS011;64086;43.220;27.878;2022-12-08T03:15:56;34.22;;;22.52;;
75506;SDS011;64086;43.220;27.878;2022-12-08T03:18:22;31.63;;;23.15;;
75506;SDS011;64086;43.220;27.878;2022-12-08T03:20:54;33.13;;;22.55;;
75506;SDS011;64086;43.220;27.878;2022-12-08T03:23:20;33.17;;;22.88;;
75506;SDS011;64086;43.220;27.878;2022-12-08T03:25:55;34.03;;;23.58;;
75506;SDS011;64086;43.220;27.878;2022-12-08T03:28:24;36.28;;;24.35;;
75506;SDS011;64086;43.220;27.878;2022-12-08T03:30:50;35.45;;;22.80;;
75506;SDS011;64086;43.220;27.878;2022-12-08T03:33:19;32.95;;;21.63;;
75506;SDS011;64086;43.220;27.878;2022-12-08T03:35:48;30.33;;;20.42;;
75506;SDS011;64086;43.220;27.878;2022-12-08T03:38:14;29.75;;;20.83;;
75506;SDS011;64086;43.220;27.878;2022-12-08T03:40:41;29.75;;;21.00;;
75506;SDS011;64086;43.220;27.878;2022-12-08T03:43:07;34.33;;;21.88;;
75506;SDS011;64086;43.220;27.878;2022-12-08T03:45:32;29.17;;;19.92;;
75506;SDS011;64086;43.220;27.878;2022-12-08T03:47:57;26.27;;;18.00;;
75506;SDS011;64086;43.220;27.878;2022-12-08T03:50:23;25.92;;;18.75;;
75506;SDS011;64086;43.220;27.878;2022-12-08T03:52:49;37.38;;;22.35;;
75506;SDS011;64086;43.220;27.878;2022-12-08T03:55:14;29.73;;;19.92;;
75506;SDS011;64086;43.220;27.878;2022-12-08T03:57:40;25.35;;;18.02;;
75506;SDS011;64086;43.220;27.878;2022-12-08T04:00:06;29.33;;;19.20;;
75506;SDS011;64086;43.220;27.878;2022-12-08T04:02:34;28.17;;;18.25;;
75506;SDS011;64086;43.220;27.878;2022-12-08T04:04:59;33.65;;;18.23;;
75506;SDS011;64086;43.220;27.878;2022-12-08T04:07:24;24.20;;;17.23;;
75506;SDS011;64086;43.220;27.878;2022-12-08T04:09:50;26.55;;;18.05;;
75506;SDS011;64086;43.220;27.878;2022-12-08T04:12:15;28.75;;;19.25;;
75506;SDS011;64086;43.220;27.878;2022-12-08T04:14:41;28.15;;;17.80;;
75506;SDS011;64086;43.220;27.878;2022-12-08T04:17:06;28.58;;;18.52;;
75506;SDS011;64086;43.220;27.878;2022-12-08T04:19:31;28.92;;;19.42;;
75506;SDS011;64086;43.220;27.878;2022-12-08T04:21:57;29.52;;;20.45;;
75506;SDS011;64086;43.220;27.878;2022-12-08T04:24:22;27.95;;;18.85;;
75506;SDS011;64086;43.220;27.878;2022-12-08T04:26:48;34.33;;;18.02;;
75506;SDS011;64086;43.220;27.878;2022-12-08T04:29:16;26.23;;;17.40;;
75506;SDS011;64086;43.220;27.878;2022-12-08T04:31:42;30.55;;;19.23;;
75506;SDS011;64086;43.220;27.878;2022-12-08T04:34:07;27.77;;;19.10;;
75506;SDS011;64086;43.220;27.878;2022-12-08T04:36:33;25.60;;;17.77;;
75506;SDS011;64086;43.220;27.878;2022-12-08T04:38:58;24.67;;;16.48;;
75506;SDS011;64086;43.220;27.878;2022-12-08T04:41:24;28.63;;;17.90;;
75506;SDS011;64086;43.220;27.878;2022-12-08T04:43:49;28.40;;;19.40;;
75506;SDS011;64086;43.220;27.878;2022-12-08T04:46:15;35.08;;;19.90;;
75506;SDS011;64086;43.220;27.878;2022-12-08T04:48:40;32.20;;;20.67;;
75506;SDS011;64086;43.220;27.878;2022-12-08T04:51:06;32.13;;;20.65;;
75506;SDS011;64086;43.220;27.878;2022-12-08T04:53:32;33.00;;;20.48;;
75506;SDS011;64086;43.220;27.878;2022-12-08T04:55:57;34.42;;;22.58;;
75506;SDS011;64086;43.220;27.878;2022-12-08T04:58:23;32.10;;;20.73;;
75506;SDS011;64086;43.220;27.878;2022-12-08T05:00:48;29.10;;;18.08;;
75506;SDS011;64086;43.220;27.878;2022-12-08T05:03:14;29.83;;;17.67;;
75506;SDS011;64086;43.220;27.878;2022-12-08T05:05:41;34.40;;;18.88;;
75506;SDS011;64086;43.220;27.878;2022-12-08T05:08:07;30.02;;;19.42;;
75506;SDS011;64086;43.220;27.878;2022-12-08T05:10:33;25.80;;;18.35;;
75506;SDS011;64086;43.220;27.878;2022-12-08T05:12:58;28.70;;;18.42;;
75506;SDS011;64086;43.220;27.878;2022-12-08T05:15:24;25.75;;;18.13;;
75506;SDS011;64086;43.220;27.878;2022-12-08T05:17:50;27.55;;;17.85;;
75506;SDS011;64086;43.220;27.878;2022-12-08T05:20:15;24.30;;;16.92;;
75506;SDS011;64086;43.220;27.878;2022-12-08T05:22:44;27.60;;;18.35;;
75506;SDS011;64086;43.220;27.878;2022-12-08T05:25:09;27.23;;;18.92;;
75506;SDS011;64086;43.220;27.878;2022-12-08T05:27:35;27.17;;;19.48;;
75506;SDS011;64086;43.220;27.878;2022-12-08T05:30:00;39.33;;;25.48;;
75506;SDS011;64086;43.220;27.878;2022-12-08T05:32:26;35.85;;;26.58;;
75506;SDS011;64086;43.220;27.878;2022-12-08T05:34:52;33.72;;;24.48;;
75506;SDS011;64086;43.220;27.878;2022-12-08T05:37:17;23.45;;;17.63;;
75506;SDS011;64086;43.220;27.878;2022-12-08T05:39:42;29.95;;;23.55;;
75506;SDS011;64086;43.220;27.878;2022-12-08T05:42:08;30.67;;;22.83;;
75506;SDS011;64086;43.220;27.878;2022-12-08T05:44:33;27.63;;;21.45;;
75506;SDS011;64086;43.220;27.878;2022-12-08T05:46:59;29.08;;;21.08;;
75506;SDS011;64086;43.220;27.878;2022-12-08T05:49:25;28.52;;;21.23;;
75506;SDS011;64086;43.220;27.878;2022-12-08T05:51:50;29.48;;;20.90;;
75506;SDS011;64086;43.220;27.878;2022-12-08T05:54:16;30.77;;;21.23;;
75506;SDS011;64086;43.220;27.878;2022-12-08T05:56:41;34.80;;;25.02;;
75506;SDS011;64086;43.220;27.878;2022-12-08T05:59:07;34.58;;;23.85;;
75506;SDS011;64086;43.220;27.878;2022-12-08T06:01:32;41.63;;;25.83;;
75506;SDS011;64086;43.220;27.878;2022-12-08T06:03:59;39.03;;;25.15;;
75506;SDS011;64086;43.220;27.878;2022-12-08T06:06:25;34.65;;;23.30;;
75506;SDS011;64086;43.220;27.878;2022-12-08T06:08:51;32.30;;;23.65;;
75506;SDS011;64086;43.220;27.878;2022-12-08T06:11:21;33.92;;;24.48;;
75506;SDS011;64086;43.220;27.878;2022-12-08T06:13:50;36.95;;;22.55;;
75506;SDS011;64086;43.220;27.878;2022-12-08T06:16:16;31.63;;;22.00;;
75506;SDS011;64086;43.220;27.878;2022-12-08T06:18:41;32.40;;;23.63;;
75506;SDS011;64086;43.220;27.878;2022-12-08T06:21:09;32.10;;;24.33;;
75506;SDS011;64086;43.220;27.878;2022-12-08T06:23:35;41.97;;;25.88;;
75506;SDS011;64086;43.220;27.878;2022-12-08T06:26:04;40.63;;;25.63;;
75506;SDS011;64086;43.220;27.878;2022-12-08T06:28:34;35.97;;;24.85;;
75506;SDS011;64086;43.220;27.878;2022-12-08T06:31:05;41.08;;;26.75;;
75506;SDS011;64086;43.220;27.878;2022-12-08T06:33:32;44.97;;;27.58;;
75506;SDS011;64086;43.220;27.878;2022-12-08T06:35:57;51.05;;;33.08;;
75506;SDS011;64086;43.220;27.878;2022-12-08T06:38:23;50.65;;;33.50;;
75506;SDS011;64086;43.220;27.878;2022-12-08T06:40:52;51.58;;;31.10;;
75506;SDS011;64086;43.220;27.878;2022-12-08T06:43:18;46.05;;;29.10;;
75506;SDS011;64086;43.220;27.878;2022-12-08T06:45:44;35.10;;;23.88;;
75506;SDS011;64086;43.220;27.878;2022-12-08T06:48:09;36.20;;;22.08;;
75506;SDS011;64086;43.220;27.878;2022-12-08T06:50:34;33.45;;;22.40;;
75506;SDS011;64086;43.220;27.878;2022-12-08T06:53:00;32.22;;;22.48;;
75506;SDS011;64086;43.220;27.878;2022-12-08T06:55:25;27.42;;;18.40;;
75506;SDS011;64086;43.220;27.878;2022-12-08T06:57:52;28.15;;;20.80;;
75506;SDS011;64086;43.220;27.878;2022-12-08T07:00:17;28.80;;;21.10;;
75506;SDS011;64086;43.220;27.878;2022-12-08T07:02:43;30.67;;;22.65;;
75506;SDS011;64086;43.220;27.878;2022-12-08T07:05:08;32.30;;;25.40;;
75506;SDS011;64086;43.220;27.878;2022-12-08T07:07:34;31.92;;;24.88;;
75506;SDS011;64086;43.220;27.878;2022-12-08T07:09:59;32.95;;;26.25;;
75506;SDS011;64086;43.220;27.878;2022-12-08T07:12:24;35.13;;;27.42;;
75506;SDS011;64086;43.220;27.878;2022-12-08T07:14:50;35.00;;;27.60;;
75506;SDS011;64086;43.220;27.878;2022-12-08T07:17:15;35.58;;;27.73;;
75506;SDS011;64086;43.220;27.878;2022-12-08T07:19:41;37.20;;;28.35;;
75506;SDS011;64086;43.220;27.878;2022-12-08T07:22:06;42.20;;;29.88;;
75506;SDS011;64086;43.220;27.878;2022-12-08T07:24:31;40.67;;;30.73;;
75506;SDS011;64086;43.220;27.878;2022-12-08T07:26:57;45.03;;;30.92;;
75506;SDS011;64086;43.220;27.878;2022-12-08T07:29:22;44.75;;;31.88;;
75506;SDS011;64086;43.220;27.878;2022-12-08T07:31:48;44.72;;;31.70;;
75506;SDS011;64086;43.220;27.878;2022-12-08T07:34:13;48.05;;;32.92;;
75506;SDS011;64086;43.220;27.878;2022-12-08T07:36:39;48.08;;;31.73;;
75506;SDS011;64086;43.220;27.878;2022-12-08T07:39:04;53.88;;;37.42;;
75506;SDS011;64086;43.220;27.878;2022-12-08T07:41:30;56.80;;;40.78;;
75506;SDS011;64086;43.220;27.878;2022-12-08T07:43:55;58.78;;;42.00;;
75506;SDS011;64086;43.220;27.878;2022-12-08T07:46:21;95.30;;;53.22;;
75506;SDS011;64086;43.220;27.878;2022-12-08T07:48:48;87.63;;;47.83;;
75506;SDS011;64086;43.220;27.878;2022-12-08T07:51:15;76.45;;;44.03;;
75506;SDS011;64086;43.220;27.878;2022-12-08T07:53:41;76.28;;;44.20;;
75506;SDS011;64086;43.220;27.878;2022-12-08T07:56:07;61.70;;;42.70;;
75506;SDS011;64086;43.220;27.878;2022-12-08T07:58:34;63.80;;;42.85;;
75506;SDS011;64086;43.220;27.878;2022-12-08T08:00:59;63.83;;;42.15;;
75506;SDS011;64086;43.220;27.878;2022-12-08T08:03:24;57.70;;;40.55;;
75506;SDS011;64086;43.220;27.878;2022-12-08T08:06:14;56.78;;;39.25;;
75506;SDS011;64086;43.220;27.878;2022-12-08T08:08:39;58.70;;;38.08;;
75506;SDS011;64086;43.220;27.878;2022-12-08T08:11:05;52.53;;;36.58;;
75506;SDS011;64086;43.220;27.878;2022-12-08T08:13:31;56.70;;;36.47;;
75506;SDS011;64086;43.220;27.878;2022-12-08T08:16:01;60.40;;;38.08;;
75506;SDS011;64086;43.220;27.878;2022-12-08T09:01:31;57.28;;;29.52;;
75506;SDS011;64086;43.220;27.878;2022-12-08T09:03:57;53.60;;;29.77;;
75506;SDS011;64086;43.220;27.878;2022-12-08T09:06:23;49.33;;;29.48;;
75506;SDS011;64086;43.220;27.878;2022-12-08T09:08:49;46.75;;;29.20;;
75506;SDS011;64086;43.220;27.878;2022-12-08T09:11:15;50.10;;;28.63;;
75506;SDS011;64086;43.220;27.878;2022-12-08T09:13:48;46.28;;;28.60;;
75506;SDS011;64086;43.220;27.878;2022-12-08T09:16:15;46.50;;;28.77;;
75506;SDS011;64086;43.220;27.878;2022-12-08T09:18:41;42.15;;;27.98;;
75506;SDS011;64086;43.220;27.878;2022-12-08T09:21:07;42.70;;;26.92;;
75506;SDS011;64086;43.220;27.878;2022-12-08T09:23:35;40.13;;;27.08;;
75506;SDS011;64086;43.220;27.878;2022-12-08T09:26:01;41.08;;;27.30;;
75506;SDS011;64086;43.220;27.878;2022-12-08T09:28:28;39.58;;;26.60;;
75506;SDS011;64086;43.220;27.878;2022-12-08T09:30:54;40.83;;;28.10;;
75506;SDS011;64086;43.220;27.878;2022-12-08T09:33:20;43.40;;;27.88;;
75506;SDS011;64086;43.220;27.878;2022-12-08T09:35:45;41.25;;;27.73;;
75506;SDS011;64086;43.220;27.878;2022-12-08T09:38:10;40.72;;;27.88;;
75506;SDS011;64086;43.220;27.878;2022-12-08T09:40:38;43.25;;;27.33;;
75506;SDS011;64086;43.220;27.878;2022-12-08T09:43:19;44.63;;;28.92;;
75506;SDS011;64086;43.220;27.878;2022-12-08T09:45:49;47.10;;;30.00;;
75506;SDS011;64086;43.220;27.878;2022-12-08T09:48:19;44.95;;;30.20;;
75506;SDS011;64086;43.220;27.878;2022-12-08T09:50:53;48.28;;;32.75;;
75506;SDS011;64086;43.220;27.878;2022-12-08T10:01:14;48.95;;;32.67;;
75506;SDS011;64086;43.220;27.878;2022-12-08T10:03:40;57.03;;;33.55;;
75506;SDS011;64086;43.220;27.878;2022-12-08T10:06:20;50.03;;;33.80;;
75506;SDS011;64086;43.220;27.878;2022-12-08T10:14:22;59.45;;;37.72;;
75506;SDS011;64086;43.220;27.878;2022-12-08T10:17:39;53.05;;;36.55;;
75506;SDS011;64086;43.220;27.878;2022-12-08T10:19:46;56.20;;;34.58;;
75506;SDS011;64086;43.220;27.878;2022-12-08T10:22:22;58.60;;;38.72;;
75506;SDS011;64086;43.220;27.878;2022-12-08T10:27:50;53.28;;;35.53;;
75506;SDS011;64086;43.220;27.878;2022-12-08T10:30:17;61.67;;;36.72;;
75506;SDS011;64086;43.220;27.878;2022-12-08T10:32:45;57.53;;;37.08;;
75506;SDS011;64086;43.220;27.878;2022-12-08T10:35:13;62.65;;;38.38;;
75506;SDS011;64086;43.220;27.878;2022-12-08T10:37:41;63.05;;;38.78;;
75506;SDS011;64086;43.220;27.878;2022-12-08T10:40:19;54.00;;;35.85;;
75506;SDS011;64086;43.220;27.878;2022-12-08T10:42:46;54.45;;;37.67;;
75506;SDS011;64086;43.220;27.878;2022-12-08T10:47:58;53.70;;;36.83;;
75506;SDS011;64086;43.220;27.878;2022-12-08T10:50:30;56.35;;;37.90;;
75506;SDS011;64086;43.220;27.878;2022-12-08T10:53:20;57.33;;;38.20;;
75506;SDS011;64086;43.220;27.878;2022-12-08T10:55:48;61.10;;;39.67;;
75506;SDS011;64086;43.220;27.878;2022-12-08T11:03:33;72.18;;;41.40;;
75506;SDS011;64086;43.220;27.878;2022-12-08T11:06:18;74.80;;;40.47;;
75506;SDS011;64086;43.220;27.878;2022-12-08T11:08:47;69.20;;;39.15;;
75506;SDS011;64086;43.220;27.878;2022-12-08T11:11:13;74.43;;;40.67;;
75506;SDS011;64086;43.220;27.878;2022-12-08T11:13:40;70.22;;;40.63;;
75506;SDS011;64086;43.220;27.878;2022-12-08T11:16:05;67.45;;;37.47;;
75506;SDS011;64086;43.220;27.878;2022-12-08T11:19:05;67.80;;;36.65;;
75506;SDS011;64086;43.220;27.878;2022-12-08T11:21:29;65.63;;;36.67;;
75506;SDS011;64086;43.220;27.878;2022-12-08T11:24:03;59.75;;;34.70;;
75506;SDS011;64086;43.220;27.878;2022-12-08T11:26:36;66.75;;;37.08;;
75506;SDS011;64086;43.220;27.878;2022-12-08T11:29:01;65.75;;;37.28;;
75506;SDS011;64086;43.220;27.878;2022-12-08T11:33:59;67.32;;;38.00;;
75506;SDS011;64086;43.220;27.878;2022-12-08T11:36:27;65.28;;;35.75;;
75506;SDS011;64086;43.220;27.878;2022-12-08T11:38:55;66.65;;;37.88;;
75506;SDS011;64086;43.220;27.878;2022-12-08T11:41:23;68.50;;;37.75;;
75506;SDS011;64086;43.220;27.878;2022-12-08T11:46:57;65.85;;;37.90;;
75506;SDS011;64086;43.220;27.878;2022-12-08T11:49:44;65.70;;;38.55;;
75506;SDS011;64086;43.220;27.878;2022-12-08T11:52:31;60.22;;;38.03;;
75506;SDS011;64086;43.220;27.878;2022-12-08T11:55:15;71.47;;;39.55;;
75506;SDS011;64086;43.220;27.878;2022-12-08T11:57:43;73.20;;;40.85;;
75506;SDS011;64086;43.220;27.878;2022-12-08T12:00:09;72.28;;;42.33;;
75506;SDS011;64086;43.220;27.878;2022-12-08T12:02:39;68.68;;;43.33;;
75506;SDS011;64086;43.220;27.878;2022-12-08T12:05:14;73.63;;;46.92;;
75506;SDS011;64086;43.220;27.878;2022-12-08T12:10:46;44.03;;;28.02;;
75506;SDS011;64086;43.220;27.878;2022-12-08T12:21:21;36.50;;;24.70;;
75506;SDS011;64086;43.220;27.878;2022-12-08T12:23:52;36.17;;;25.13;;
75506;SDS011;64086;43.220;27.878;2022-12-08T12:26:30;38.63;;;24.60;;
75506;SDS011;64086;43.220;27.878;2022-12-08T12:29:04;38.95;;;25.70;;
75506;SDS011;64086;43.220;27.878;2022-12-08T12:34:06;35.13;;;23.55;;
75506;SDS011;64086;43.220;27.878;2022-12-08T12:36:44;33.50;;;24.38;;
75506;SDS011;64086;43.220;27.878;2022-12-08T12:39:12;37.58;;;23.90;;
75506;SDS011;64086;43.220;27.878;2022-12-08T13:05:02;34.50;;;22.95;;
75506;SDS011;64086;43.220;27.878;2022-12-08T13:10:29;35.03;;;23.55;;
75506;SDS011;64086;43.220;27.878;2022-12-08T13:16:18;35.08;;;23.38;;
75506;SDS011;64086;43.220;27.878;2022-12-08T13:18:41;37.85;;;24.45;;
75506;SDS011;64086;43.220;27.878;2022-12-08T13:21:13;34.42;;;23.40;;
75506;SDS011;64086;43.220;27.878;2022-12-08T13:23:42;35.72;;;23.02;;
75506;SDS011;64086;43.220;27.878;2022-12-08T13:26:16;35.08;;;22.80;;
75506;SDS011;64086;43.220;27.878;2022-12-08T13:33:59;34.90;;;22.75;;
75506;SDS011;64086;43.220;27.878;2022-12-08T13:36:26;33.10;;;21.98;;
75506;SDS011;64086;43.220;27.878;2022-12-08T13:38:57;37.70;;;22.75;;
75506;SDS011;64086;43.220;27.878;2022-12-08T13:41:32;36.67;;;23.27;;
75506;SDS011;64086;43.220;27.878;2022-12-08T13:44:26;33.25;;;21.88;;
75506;SDS011;64086;43.220;27.878;2022-12-08T13:47:37;36.45;;;23.25;;
75506;SDS011;64086;43.220;27.878;2022-12-08T13:52:35;32.83;;;22.58;;
75506;SDS011;64086;43.220;27.878;2022-12-08T13:55:03;32.10;;;22.70;;
75506;SDS011;64086;43.220;27.878;2022-12-08T13:57:30;35.50;;;23.77;;
75506;SDS011;64086;43.220;27.878;2022-12-08T14:00:01;42.85;;;27.35;;
75506;SDS011;64086;43.220;27.878;2022-12-08T14:02:35;34.00;;;22.67;;
75506;SDS011;64086;43.220;27.878;2022-12-08T14:07:27;34.33;;;21.92;;
75506;SDS011;64086;43.220;27.878;2022-12-08T14:09:52;35.30;;;22.65;;
75506;SDS011;64086;43.220;27.878;2022-12-08T14:14:45;34.17;;;22.35;;
75506;SDS011;64086;43.220;27.878;2022-12-08T14:17:19;33.15;;;22.25;;
75506;SDS011;64086;43.220;27.878;2022-12-08T14:20:46;33.25;;;21.60;;
75506;SDS011;64086;43.220;27.878;2022-12-08T14:22:53;33.88;;;21.52;;
75506;SDS011;64086;43.220;27.878;2022-12-08T14:25:20;31.42;;;21.50;;
75506;SDS011;64086;43.220;27.878;2022-12-08T14:27:47;34.70;;;21.88;;
75506;SDS011;64086;43.220;27.878;2022-12-08T14:37:42;32.72;;;22.20;;
75506;SDS011;64086;43.220;27.878;2022-12-08T14:43:11;33.92;;;24.25;;
75506;SDS011;64086;43.220;27.878;2022-12-08T14:56:20;29.95;;;20.92;;
75506;SDS011;64086;43.220;27.878;2022-12-08T14:58:48;32.30;;;22.25;;
75506;SDS011;64086;43.220;27.878;2022-12-08T15:01:16;33.38;;;23.13;;
75506;SDS011;64086;43.220;27.878;2022-12-08T15:03:46;33.50;;;21.63;;
75506;SDS011;64086;43.220;27.878;2022-12-08T15:06:12;34.72;;;21.00;;
75506;SDS011;64086;43.220;27.878;2022-12-08T15:08:55;37.60;;;23.05;;
75506;SDS011;64086;43.220;27.878;2022-12-08T15:11:29;33.65;;;22.17;;
75506;SDS011;64086;43.220;27.878;2022-12-08T15:13:56;39.30;;;21.98;;
75506;SDS011;64086;43.220;27.878;2022-12-08T15:16:26;32.88;;;22.83;;
75506;SDS011;64086;43.220;27.878;2022-12-08T15:21:41;34.53;;;22.40;;
75506;SDS011;64086;43.220;27.878;2022-12-08T15:24:09;34.67;;;22.60;;
75506;SDS011;64086;43.220;27.878;2022-12-08T15:26:40;35.47;;;22.75;;
75506;SDS011;64086;43.220;27.878;2022-12-08T15:31:51;33.95;;;22.27;;
75506;SDS011;64086;43.220;27.878;2022-12-08T15:34:18;34.70;;;22.90;;
75506;SDS011;64086;43.220;27.878;2022-12-08T15:36:45;32.25;;;22.08;;
75506;SDS011;64086;43.220;27.878;2022-12-08T15:41:48;35.15;;;23.20;;
75506;SDS011;64086;43.220;27.878;2022-12-08T15:44:14;33.03;;;23.42;;
75506;SDS011;64086;43.220;27.878;2022-12-08T15:46:39;34.45;;;24.35;;
75506;SDS011;64086;43.220;27.878;2022-12-08T15:49:05;31.73;;;24.40;;
75506;SDS011;64086;43.220;27.878;2022-12-08T15:51:30;36.08;;;25.60;;
75506;SDS011;64086;43.220;27.878;2022-12-08T15:54:00;37.50;;;26.65;;
75506;SDS011;64086;43.220;27.878;2022-12-08T15:56:26;33.13;;;25.00;;
75506;SDS011;64086;43.220;27.878;2022-12-08T15:58:52;31.90;;;23.10;;
75506;SDS011;64086;43.220;27.878;2022-12-08T16:01:18;33.03;;;23.58;;
75506;SDS011;64086;43.220;27.878;2022-12-08T16:03:43;31.88;;;23.80;;
75506;SDS011;64086;43.220;27.878;2022-12-08T16:06:11;40.38;;;25.77;;
75506;SDS011;64086;43.220;27.878;2022-12-08T16:08:40;34.38;;;24.38;;
75506;SDS011;64086;43.220;27.878;2022-12-08T16:11:06;33.55;;;24.63;;
75506;SDS011;64086;43.220;27.878;2022-12-08T16:13:50;34.67;;;24.45;;
75506;SDS011;64086;43.220;27.878;2022-12-08T16:16:16;36.03;;;25.42;;
75506;SDS011;64086;43.220;27.878;2022-12-08T16:18:45;39.92;;;25.13;;
75506;SDS011;64086;43.220;27.878;2022-12-08T16:21:12;34.53;;;24.42;;
75506;SDS011;64086;43.220;27.878;2022-12-08T16:23:38;36.95;;;26.73;;
75506;SDS011;64086;43.220;27.878;2022-12-08T16:26:03;36.03;;;25.60;;
75506;SDS011;64086;43.220;27.878;2022-12-08T16:28:28;36.97;;;26.95;;
75506;SDS011;64086;43.220;27.878;2022-12-08T16:30:54;38.10;;;28.65;;
75506;SDS011;64086;43.220;27.878;2022-12-08T16:33:20;39.33;;;30.35;;
75506;SDS011;64086;43.220;27.878;2022-12-08T16:35:46;43.65;;;32.00;;
75506;SDS011;64086;43.220;27.878;2022-12-08T16:38:15;51.42;;;36.42;;
75506;SDS011;64086;43.220;27.878;2022-12-08T16:40:44;45.67;;;33.22;;
75506;SDS011;64086;43.220;27.878;2022-12-08T16:43:30;38.17;;;28.15;;
75506;SDS011;64086;43.220;27.878;2022-12-08T16:45:56;42.70;;;28.85;;
75506;SDS011;64086;43.220;27.878;2022-12-08T16:48:22;33.88;;;25.58;;
75506;SDS011;64086;43.220;27.878;2022-12-08T16:50:47;31.95;;;22.50;;
75506;SDS011;64086;43.220;27.878;2022-12-08T16:53:12;35.47;;;22.95;;
75506;SDS011;64086;43.220;27.878;2022-12-08T16:55:38;33.80;;;24.20;;
75506;SDS011;64086;43.220;27.878;2022-12-08T16:58:04;36.58;;;24.80;;
75506;SDS011;64086;43.220;27.878;2022-12-08T17:00:30;34.13;;;24.90;;
75506;SDS011;64086;43.220;27.878;2022-12-08T17:03:00;34.10;;;23.83;;
75506;SDS011;64086;43.220;27.878;2022-12-08T17:05:26;33.40;;;25.58;;
75506;SDS011;64086;43.220;27.878;2022-12-08T17:07:52;35.40;;;25.67;;
75506;SDS011;64086;43.220;27.878;2022-12-08T17:10:20;35.63;;;24.27;;
75506;SDS011;64086;43.220;27.878;2022-12-08T17:12:47;36.20;;;25.23;;
75506;SDS011;64086;43.220;27.878;2022-12-08T17:15:14;35.33;;;25.38;;
75506;SDS011;64086;43.220;27.878;2022-12-08T17:17:41;35.88;;;26.38;;
75506;SDS011;64086;43.220;27.878;2022-12-08T17:20:08;36.30;;;25.67;;
75506;SDS011;64086;43.220;27.878;2022-12-08T17:22:36;34.72;;;28.00;;
75506;SDS011;64086;43.220;27.878;2022-12-08T17:25:02;43.95;;;31.60;;
75506;SDS011;64086;43.220;27.878;2022-12-08T17:27:29;45.88;;;33.47;;